Portada
METAR-TAF:

METAR-TAF

Aeroports :

Asahikawa, Japó

latitud: 43-40N, longitud: 142-27E, altitud: 208 m

Observació

L'informe es va fer fa 56 minuts, a les 08:00 UTC
Vent 5 kt del Oest
Temperatura 30°C
Humitat 59%
Pressió 1008 hPa
Visibilitat 10 km o més
Escasses núvols a una alçada de 3000 ft
Núvols disperses a una alçada de 5000 ft

METAR: RJEC 180800Z 26005KT 9999 FEW030 SCT050 30/21 Q1008

Hora: 17:56 (08:56 UTC)

Pronòstic

L'informe es va fer fa 3 hores i 51 minuts, a les 05:05 UTC
Pronòstic vàlid del 18 a les 06 UTC al 19 a les 12 UTC
Vent 6 kt del Nord
Visibilitat 10 km o més
Escasses núvols a una alçada de 3000 ft
Núvols disperses a una alçada de 5000 ft
Evolucionant progressivament
l' 18 a les 09 UTC al 18 a les 11 UTC
Vent 15 kt del Sud

TAF: RJEC 180505Z 1806/1912 36006KT 9999 FEW030 SCT050 BECMG 1809/1811 18015KT

Observacions i pronòstics meteorològics de més de 4000 aeroports (METAR i TAF).

Les estacions disponibles són els punts grocs i vermells al mapa.

Posi el ratolí al punt desitjat per veure el nom de l'estació.

Feu clic per veure les observacions i els pronòstics meteorològics.

Per canviar el mapa: feu clic els botons verds amb una creu de color negre per apropar; al botó verd amb un guió per allunyar la imatge; o en les fletxes verdes per a mapes adjacents.


METAR-TAF: